createdAt,value
2022-11-30T00:01:42.096Z,31.58
2022-11-30T00:11:53.152Z,23.85
2022-11-30T00:16:59.051Z,31.55
2022-11-30T00:22:04.809Z,22.83
2022-11-30T00:32:15.876Z,26.52
2022-11-30T00:37:23.385Z,28.52
2022-11-30T00:42:28.854Z,15.80
2022-11-30T00:47:34.499Z,22.85
2022-11-30T00:52:40.535Z,23.08
2022-11-30T00:57:47.670Z,23.98
2022-11-30T01:03:04.290Z,32.85
2022-11-30T01:08:11.740Z,13.27
2022-11-30T01:13:17.738Z,20.73
2022-11-30T01:18:23.887Z,27.50
2022-11-30T01:23:30.216Z,25.85
2022-11-30T01:28:36.581Z,33.10
2022-11-30T01:33:42.338Z,25.85
2022-11-30T01:43:55.350Z,25.88
2022-11-30T01:49:16.431Z,21.90
2022-11-30T01:54:27.390Z,25.60
2022-11-30T01:59:33.610Z,24.20
2022-11-30T02:04:40.785Z,26.10
2022-11-30T02:09:47.583Z,22.90
2022-11-30T02:14:56.507Z,20.48
2022-11-30T02:20:22.334Z,32.78
2022-11-30T02:25:50.152Z,23.50
2022-11-30T02:30:57.132Z,25.25
2022-11-30T02:36:03.518Z,31.42
2022-11-30T02:41:09.501Z,25.13
2022-11-30T02:46:15.632Z,21.85
2022-11-30T02:51:23.036Z,17.10
2022-11-30T02:56:28.878Z,18.52
2022-11-30T03:01:34.408Z,23.83
2022-11-30T03:06:40.219Z,18.60
2022-11-30T03:11:46.029Z,20.05
2022-11-30T03:21:56.921Z,22.77
2022-11-30T03:27:03.203Z,16.77
2022-11-30T03:32:12.961Z,17.95
2022-11-30T03:37:18.734Z,24.33
2022-11-30T03:47:29.369Z,21.80
2022-11-30T03:52:34.902Z,18.08
2022-11-30T04:02:46.315Z,18.27
2022-11-30T04:07:52.264Z,17.55
2022-11-30T04:12:57.878Z,11.63
2022-11-30T04:18:03.592Z,17.23
2022-11-30T04:28:15.124Z,20.75
2022-11-30T04:33:20.961Z,16.88
2022-11-30T04:38:26.802Z,19.27
2022-11-30T04:48:40.429Z,17.52
2022-11-30T04:53:46.183Z,17.83
2022-11-30T04:58:52.285Z,16.27
2022-11-30T05:04:01.490Z,14.57
2022-11-30T05:09:07.417Z,14.02
2022-11-30T05:14:13.282Z,13.10
2022-11-30T05:19:19.427Z,17.92
2022-11-30T05:24:24.931Z,13.60
2022-11-30T05:29:30.665Z,12.43
2022-11-30T05:34:50.180Z,15.63
2022-11-30T05:39:57.356Z,16.08
2022-11-30T05:45:03.152Z,20.35
2022-11-30T05:55:14.084Z,12.65
2022-11-30T06:00:23.277Z,14.63
2022-11-30T06:05:29.293Z,15.63
2022-11-30T06:10:35.043Z,16.50
2022-11-30T06:20:48.239Z,11.27
2022-11-30T06:25:53.963Z,13.95
2022-11-30T06:31:03.352Z,10.57
2022-11-30T06:36:09.045Z,10.30
2022-11-30T06:46:19.904Z,12.32
2022-11-30T06:51:25.755Z,12.05
2022-11-30T06:56:31.669Z,12.13
2022-11-30T07:01:37.868Z,13.18
2022-11-30T07:06:48.965Z,6.80
2022-11-30T07:11:57.793Z,7.63
2022-11-30T07:22:12.047Z,12.13
2022-11-30T07:27:17.689Z,9.75
2022-11-30T07:37:28.989Z,9.60
2022-11-30T07:42:35.369Z,10.25
2022-11-30T07:47:42.465Z,14.80
2022-11-30T07:52:48.181Z,23.05
2022-11-30T08:02:59.227Z,16.55
2022-11-30T08:08:05.378Z,15.70
2022-11-30T08:13:11.406Z,15.98
2022-11-30T08:18:17.235Z,12.55
2022-11-30T08:23:23.261Z,17.90
2022-11-30T08:33:36.726Z,19.73
2022-11-30T08:38:42.901Z,15.68
2022-11-30T08:43:54.783Z,11.27
2022-11-30T08:49:20.476Z,19.00
2022-11-30T08:54:27.759Z,22.70
2022-11-30T09:00:03.097Z,17.13
2022-11-30T09:05:09.259Z,18.65
2022-11-30T09:10:15.154Z,23.02
2022-11-30T09:15:20.870Z,19.17
2022-11-30T09:25:31.412Z,25.27
2022-11-30T09:35:42.224Z,20.92
2022-11-30T09:45:59.129Z,21.10
2022-11-30T09:51:09.426Z,25.77
2022-11-30T09:56:28.508Z,31.95
2022-11-30T10:01:37.775Z,29.55
2022-11-30T10:06:53.163Z,35.65
2022-11-30T10:12:04.928Z,22.53
2022-11-30T10:17:19.233Z,25.90
2022-11-30T10:22:39.849Z,30.25
2022-11-30T10:27:48.450Z,28.80
2022-11-30T10:32:58.094Z,50.90
2022-11-30T10:38:09.793Z,31.10
2022-11-30T10:43:29.672Z,24.17
2022-11-30T10:48:45.525Z,28.08
2022-11-30T10:59:01.127Z,31.30
2022-11-30T11:04:10.601Z,26.55
2022-11-30T11:09:28.946Z,24.08
2022-11-30T11:14:37.916Z,30.63
2022-11-30T11:19:45.388Z,27.08
2022-11-30T11:24:57.602Z,27.92
2022-11-30T11:30:05.537Z,26.08
2022-11-30T11:35:35.029Z,28.88
2022-11-30T11:40:40.530Z,33.08
2022-11-30T11:45:53.623Z,29.30
2022-11-30T11:51:08.634Z,37.67
2022-11-30T11:56:14.599Z,36.38
2022-11-30T12:01:40.988Z,27.15
2022-11-30T12:06:47.834Z,25.25
2022-11-30T12:11:53.733Z,22.95
2022-11-30T12:17:06.795Z,28.88
2022-11-30T12:22:12.458Z,34.05
2022-11-30T12:27:36.575Z,29.77
2022-11-30T12:32:42.466Z,25.48
2022-11-30T12:37:57.286Z,22.52
2022-11-30T12:43:10.244Z,19.73
2022-11-30T12:48:16.247Z,26.60
2022-11-30T12:53:21.979Z,20.65
2022-11-30T13:03:53.997Z,14.63
2022-11-30T13:09:05.887Z,18.48
2022-11-30T13:14:31.140Z,18.58
2022-11-30T13:19:56.192Z,18.60
2022-11-30T13:25:34.067Z,14.52
2022-11-30T13:30:52.636Z,19.85
2022-11-30T13:35:58.804Z,18.85
2022-11-30T13:41:08.387Z,11.73
2022-11-30T13:46:14.594Z,8.75
2022-11-30T13:51:39.976Z,12.90
2022-11-30T13:56:48.806Z,8.75
2022-11-30T14:02:15.172Z,9.73
2022-11-30T14:07:40.546Z,7.68
2022-11-30T14:12:52.628Z,4.65
2022-11-30T14:18:02.927Z,10.73
2022-11-30T14:23:11.163Z,6.95
2022-11-30T14:28:28.040Z,7.28
2022-11-30T14:33:44.228Z,7.22
2022-11-30T14:38:53.230Z,6.18
2022-11-30T14:44:13.366Z,7.82
2022-11-30T14:49:25.626Z,5.93
2022-11-30T14:54:46.835Z,5.28
2022-11-30T15:00:00.080Z,7.82
2022-11-30T15:05:19.286Z,9.07
2022-11-30T15:10:53.934Z,7.53
2022-11-30T15:16:02.207Z,4.35
2022-11-30T15:21:19.759Z,9.02
2022-11-30T15:26:35.797Z,11.80
2022-11-30T15:31:58.281Z,10.65
2022-11-30T15:43:33.183Z,8.48
2022-11-30T15:56:16.565Z,5.88
2022-11-30T16:01:27.540Z,12.18
2022-11-30T16:06:40.901Z,13.27
2022-11-30T16:11:46.861Z,8.18
2022-11-30T16:22:18.084Z,11.68
2022-11-30T16:27:27.913Z,16.92
2022-11-30T16:32:42.858Z,7.65
2022-11-30T16:37:57.581Z,4.93
2022-11-30T16:43:06.216Z,12.63
2022-11-30T16:48:18.657Z,13.68
2022-11-30T16:53:28.865Z,9.90
2022-11-30T16:58:34.891Z,9.02
2022-11-30T17:03:41.684Z,6.95
2022-11-30T17:08:48.322Z,11.95
2022-11-30T17:13:54.521Z,9.80
2022-11-30T17:19:00.974Z,12.50
2022-11-30T17:24:07.758Z,8.25
2022-11-30T17:29:13.565Z,11.98
2022-11-30T17:39:24.555Z,5.53
2022-11-30T17:44:30.237Z,5.95
2022-11-30T17:49:37.182Z,6.90
2022-11-30T17:54:42.616Z,6.53
2022-11-30T17:59:48.432Z,3.13
2022-11-30T18:04:54.137Z,2.28
2022-11-30T18:10:03.656Z,2.50
2022-11-30T18:15:22.150Z,3.78
2022-11-30T18:20:28.012Z,4.00
2022-11-30T18:25:36.361Z,6.78
2022-11-30T18:30:42.296Z,2.78
2022-11-30T18:40:53.736Z,5.30
2022-11-30T18:46:13.832Z,6.57
2022-11-30T18:51:20.500Z,4.53
2022-11-30T18:56:30.376Z,5.90
2022-11-30T19:01:39.630Z,5.20
2022-11-30T19:06:50.931Z,2.47
2022-11-30T19:12:00.366Z,4.55
2022-11-30T19:17:06.294Z,3.40
2022-11-30T19:27:16.718Z,3.83
2022-11-30T19:32:22.324Z,3.03
2022-11-30T19:37:28.128Z,2.42
2022-11-30T19:42:37.346Z,2.40
2022-11-30T19:47:42.721Z,4.32
2022-11-30T19:52:51.562Z,5.20
2022-11-30T19:57:57.293Z,5.05
2022-11-30T20:03:10.952Z,3.70
2022-11-30T20:08:18.941Z,3.05
2022-11-30T20:13:24.526Z,4.35
2022-11-30T20:18:30.372Z,1.90
2022-11-30T20:23:37.292Z,4.43
2022-11-30T20:28:46.397Z,4.28
2022-11-30T20:33:54.878Z,4.25
2022-11-30T20:39:06.538Z,4.00
2022-11-30T20:44:23.672Z,3.10
2022-11-30T20:49:32.411Z,3.58
2022-11-30T20:54:38.294Z,3.88
2022-11-30T20:59:46.601Z,2.40
2022-11-30T21:04:52.447Z,2.35
2022-11-30T21:09:58.240Z,2.65
2022-11-30T21:15:03.912Z,2.92
2022-11-30T21:20:09.623Z,3.07
2022-11-30T21:25:15.365Z,2.63
2022-11-30T21:30:21.118Z,2.97
2022-11-30T21:35:26.433Z,2.88
2022-11-30T21:40:32.091Z,3.13
2022-11-30T21:45:38.255Z,2.67
2022-11-30T21:50:43.771Z,3.05
2022-11-30T21:55:52.902Z,1.03
2022-11-30T22:01:02.728Z,2.80
2022-11-30T22:06:09.487Z,1.33
2022-11-30T22:11:16.652Z,2.78
2022-11-30T22:16:22.874Z,0.80
2022-11-30T22:21:29.689Z,3.85
2022-11-30T22:26:36.608Z,1.95
2022-11-30T22:31:43.583Z,1.08
2022-11-30T22:36:49.663Z,1.95
2022-11-30T22:41:56.434Z,0.82
2022-11-30T22:47:02.318Z,0.98
2022-11-30T22:52:08.254Z,1.48
2022-11-30T22:57:14.342Z,2.92
2022-11-30T23:02:20.386Z,1.92
2022-11-30T23:07:31.751Z,2.38
2022-11-30T23:12:58.347Z,1.65
2022-11-30T23:18:03.518Z,1.25
2022-11-30T23:23:09.383Z,2.35
2022-11-30T23:33:19.804Z,2.80
2022-11-30T23:38:25.369Z,1.90
2022-11-30T23:43:31.220Z,1.05
2022-11-30T23:48:37.004Z,1.00
2022-11-30T23:53:42.751Z,1.98
2022-11-30T23:58:48.108Z,4.00
